Time;durP1;ratioP1;P1;durP2;ratioP2;P2;SDS_P1;SDS_P2;PMS_P1;PMS_P2;Temp;Humidity;BMP_temperature;BMP_pressure;BME280_temperature;BME280_humidity;BME280_pressure;Samples;Min_cycle;Max_cycle;Signal;HPM_P1;HPM_P2
2023/06/01 00:01:33;;;;;;;7.55;3.42;;;13.50;70.50;;;;;;5053294;28;20471;-84
2023/06/01 00:04:00;;;;;;;6.38;3.00;;;13.50;70.40;;;;;;5102338;28;20048;-84
2023/06/01 00:06:28;;;;;;;6.35;3.28;;;13.50;70.40;;;;;;5061001;28;20046;-84
2023/06/01 00:08:55;;;;;;;5.50;3.28;;;13.50;70.30;;;;;;5061148;28;20134;-84
2023/06/01 00:11:23;;;;;;;9.38;3.75;;;13.50;70.40;;;;;;5072077;28;20043;-84
2023/06/01 00:13:53;;;;;;;6.90;2.92;;;13.50;70.50;;;;;;5084417;28;20059;-84
2023/06/01 00:16:20;;;;;;;6.38;3.42;;;13.50;70.60;;;;;;5073047;28;20055;-84
2023/06/01 00:18:47;;;;;;;6.40;3.67;;;13.50;70.70;;;;;;5066183;28;20054;-84
2023/06/01 00:21:14;;;;;;;5.95;3.13;;;13.50;70.70;;;;;;5046708;28;20052;-84
2023/06/01 00:23:42;;;;;;;6.75;3.10;;;13.50;70.70;;;;;;5087089;28;20441;-84
2023/06/01 00:26:12;;;;;;;6.22;3.30;;;13.50;70.80;;;;;;5085243;28;20048;-84
2023/06/01 00:28:40;;;;;;;5.13;2.45;;;13.50;70.70;;;;;;5085119;28;20051;-84
2023/06/01 00:31:07;;;;;;;4.70;2.90;;;13.50;70.70;;;;;;5049112;28;20080;-84
2023/06/01 00:33:34;;;;;;;4.28;2.80;;;13.50;71.30;;;;;;5054663;28;20135;-84
2023/06/01 00:36:01;;;;;;;5.00;2.58;;;13.50;70.70;;;;;;5040474;28;20045;-85
2023/06/01 00:38:31;;;;;;;5.35;2.92;;;13.60;70.70;;;;;;5056820;28;20037;-84
2023/06/01 00:40:59;;;;;;;5.35;3.10;;;13.60;70.70;;;;;;5073978;28;20036;-84
2023/06/01 00:43:26;;;;;;;4.82;2.90;;;13.50;70.70;;;;;;5059163;28;20044;-84
2023/06/01 00:45:53;;;;;;;6.10;2.80;;;13.50;70.80;;;;;;5061662;28;20044;-84
2023/06/01 00:48:23;;;;;;;5.10;2.90;;;13.40;70.80;;;;;;5071502;28;20066;-82
2023/06/01 00:50:50;;;;;;;5.35;2.72;;;13.40;71.10;;;;;;5058507;28;20098;-84
2023/06/01 00:53:19;;;;;;;5.45;2.80;;;13.40;71.10;;;;;;5051538;28;20059;-84
2023/06/01 00:55:47;;;;;;;4.97;2.92;;;13.40;71.00;;;;;;5076827;28;20114;-84
2023/06/01 00:58:15;;;;;;;4.80;2.40;;;13.40;71.00;;;;;;5078858;28;20508;-85
2023/06/01 01:00:42;;;;;;;5.75;2.60;;;13.40;71.00;;;;;;5075415;28;20059;-84
2023/06/01 01:03:10;;;;;;;5.68;2.90;;;13.30;71.70;;;;;;5072077;28;20232;-85
2023/06/01 01:05:37;;;;;;;5.35;3.08;;;13.30;71.10;;;;;;5058727;28;20768;-85
2023/06/01 01:08:17;;;;;;;4.47;2.83;;;13.30;71.40;;;;;;5077670;28;20044;-84
2023/06/01 01:10:55;;;;;;;5.13;3.00;;;13.30;71.40;;;;;;5097142;28;20044;-84
2023/06/01 01:13:29;;;;;;;8.52;3.40;;;13.30;71.40;;;;;;5088816;28;20048;-85
2023/06/01 01:16:07;;;;;;;3.97;2.38;;;13.30;71.50;;;;;;5081916;28;20042;-84
2023/06/01 01:18:42;;;;;;;5.80;2.35;;;13.30;71.50;;;;;;5067699;28;20048;-85
2023/06/01 01:21:27;;;;;;;6.10;3.00;;;13.30;71.60;;;;;;5087343;28;20562;-84
2023/06/01 01:24:06;;;;;;;5.40;2.65;;;13.20;71.80;;;;;;5069833;28;20052;-84
2023/06/01 01:26:53;;;;;;;5.15;2.15;;;13.20;71.80;;;;;;5062303;28;20504;-84
2023/06/01 01:29:23;;;;;;;5.97;2.60;;;13.20;71.70;;;;;;5062562;28;20139;-84
2023/06/01 01:31:53;;;;;;;2.97;1.77;;;13.20;71.60;;;;;;5071990;28;20491;-84
2023/06/01 01:34:21;;;;;;;5.25;1.92;;;13.30;71.70;;;;;;5040323;28;20040;-84
2023/06/01 01:36:51;;;;;;;4.85;1.75;;;13.30;71.60;;;;;;5073186;28;20503;-84
2023/06/01 01:39:19;;;;;;;5.50;2.28;;;13.30;71.60;;;;;;5100690;28;20499;-84
2023/06/01 01:41:46;;;;;;;5.93;2.30;;;13.30;71.60;;;;;;5065337;28;20048;-84
2023/06/01 01:44:14;;;;;;;4.38;2.03;;;13.30;71.70;;;;;;5069922;28;20048;-84
2023/06/01 01:47:09;;;;;;;5.60;2.05;;;13.30;71.90;;;;;;5068625;28;20143;-84
2023/06/01 01:49:45;;;;;;;5.15;1.92;;;13.20;71.90;;;;;;5077589;28;20063;-84
2023/06/01 01:52:17;;;;;;;4.40;2.22;;;13.30;72.00;;;;;;5089219;28;20048;-85
2023/06/01 01:54:46;;;;;;;;;;;13.20;72.10;;;;;;5099216;28;20047;-84
2023/06/01 01:57:14;;;;;;;5.28;2.00;;;13.10;72.10;;;;;;5092519;28;20019;-84
2023/06/01 01:59:43;;;;;;;5.57;2.53;;;13.00;72.30;;;;;;5059596;28;20043;-84
2023/06/01 02:02:10;;;;;;;3.70;2.38;;;13.00;72.60;;;;;;5078403;28;20135;-85
2023/06/01 02:04:42;;;;;;;4.38;2.10;;;13.00;72.50;;;;;;5079858;28;20044;-84
2023/06/01 02:07:10;;;;;;;4.53;2.13;;;13.00;72.50;;;;;;5099761;28;20048;-84
2023/06/01 02:09:39;;;;;;;5.40;2.47;;;13.00;72.50;;;;;;5105239;28;20063;-84
2023/06/01 02:12:07;;;;;;;4.93;2.50;;;13.00;72.50;;;;;;5047623;28;20181;-84
2023/06/01 02:14:34;;;;;;;4.50;2.50;;;13.00;72.50;;;;;;5072942;28;20067;-83
2023/06/01 02:17:02;;;;;;;5.03;2.20;;;13.00;72.40;;;;;;5082182;28;20048;-84
2023/06/01 02:19:30;;;;;;;4.72;2.05;;;13.10;72.40;;;;;;5069574;28;20508;-84
2023/06/01 02:21:57;;;;;;;4.13;2.20;;;13.00;72.40;;;;;;5064248;28;20450;-85
2023/06/01 02:24:24;;;;;;;4.75;2.20;;;13.00;72.40;;;;;;5079444;28;20562;-83
2023/06/01 02:26:53;;;;;;;4.72;2.33;;;13.00;72.40;;;;;;5057864;28;20420;-84
2023/06/01 02:29:24;;;;;;;7.68;2.55;;;13.00;72.50;;;;;;5062156;28;20119;-84
2023/06/01 02:31:52;;;;;;;6.20;2.50;;;13.00;72.60;;;;;;5055882;28;20472;-84
2023/06/01 02:34:20;;;;;;;4.63;2.15;;;12.90;72.70;;;;;;5072001;28;20067;-84
2023/06/01 02:36:48;;;;;;;5.03;2.72;;;12.90;72.80;;;;;;5103077;28;20036;-84
2023/06/01 02:39:16;;;;;;;7.53;3.00;;;12.90;72.80;;;;;;5071322;28;20055;-84
2023/06/01 02:41:44;;;;;;;5.25;2.47;;;12.90;73.00;;;;;;5045333;28;20564;-84
2023/06/01 02:44:11;;;;;;;6.13;2.85;;;12.90;72.90;;;;;;5055551;28;20056;-84
2023/06/01 02:46:38;;;;;;;6.53;2.85;;;12.80;72.90;;;;;;5067441;28;20047;-84
2023/06/01 02:49:06;;;;;;;5.43;2.40;;;12.80;73.00;;;;;;5071075;28;20093;-84
2023/06/01 02:51:33;;;;;;;5.97;2.83;;;12.80;73.00;;;;;;5060675;28;20488;-84
2023/06/01 02:54:11;;;;;;;4.57;2.53;;;12.80;73.10;;;;;;5079523;28;20503;-84
2023/06/01 02:56:38;;;;;;;5.97;2.28;;;12.80;73.00;;;;;;5071467;28;20043;-84
2023/06/01 02:59:23;;;;;;;11.40;3.03;;;12.80;73.70;;;;;;5093969;28;20089;-84
2023/06/01 03:01:58;;;;;;;5.38;2.28;;;12.70;73.10;;;;;;5074469;28;20052;-84
2023/06/01 03:04:28;;;;;;;5.55;2.47;;;12.70;73.10;;;;;;5073946;28;20044;-84
2023/06/01 03:06:58;;;;;;;6.95;2.60;;;12.70;73.20;;;;;;5077563;28;20403;-83
2023/06/01 03:09:37;;;;;;;5.68;2.60;;;12.70;73.30;;;;;;5074506;28;20412;-84
2023/06/01 03:12:14;;;;;;;6.80;2.45;;;12.70;73.40;;;;;;5073013;28;20041;-84
2023/06/01 03:14:42;;;;;;;5.78;2.70;;;12.70;73.40;;;;;;5075495;28;20515;-84
2023/06/01 03:17:09;;;;;;;5.25;2.28;;;12.60;73.40;;;;;;5085697;28;20052;-84
2023/06/01 03:19:36;;;;;;;7.18;2.70;;;12.60;73.40;;;;;;5090764;28;20044;-84
2023/06/01 03:22:12;;;;;;;4.78;2.30;;;12.60;73.40;;;;;;5077950;28;20048;-84
2023/06/01 03:24:41;;;;;;;5.53;2.40;;;12.60;73.30;;;;;;5057801;28;20052;-83
2023/06/01 03:27:10;;;;;;;8.02;2.72;;;12.60;73.30;;;;;;5080176;28;20579;-83
2023/06/01 03:29:38;;;;;;;4.82;2.40;;;12.70;73.30;;;;;;5059531;28;20726;-84
2023/06/01 03:32:06;;;;;;;4.95;2.42;;;12.70;73.30;;;;;;5055780;28;20079;-84
2023/06/01 03:34:36;;;;;;;4.82;2.10;;;12.70;73.30;;;;;;5071555;28;20050;-84
2023/06/01 03:37:04;;;;;;;7.53;2.17;;;12.70;73.20;;;;;;5084010;28;20044;-84
2023/06/01 03:39:35;;;;;;;5.57;2.20;;;12.70;73.20;;;;;;5077640;28;20044;-84
2023/06/01 03:42:06;;;;;;;6.45;2.80;;;12.70;73.30;;;;;;5063548;28;20047;-84
2023/06/01 03:44:35;;;;;;;3.63;2.17;;;12.70;73.30;;;;;;5061891;28;20075;-84
2023/06/01 03:47:02;;;;;;;3.97;2.30;;;12.70;73.30;;;;;;5061128;28;20075;-84
2023/06/01 03:49:30;;;;;;;4.55;2.05;;;12.80;73.20;;;;;;5070070;28;20372;-84
2023/06/01 03:51:57;;;;;;;5.22;2.40;;;12.80;73.10;;;;;;5065086;28;20037;-84
2023/06/01 03:54:24;;;;;;;5.00;2.13;;;12.80;73.10;;;;;;5064801;28;20051;-84
2023/06/01 03:56:51;;;;;;;7.25;3.20;;;12.80;73.20;;;;;;5103053;28;20072;-84
2023/06/01 03:59:19;;;;;;;6.30;2.70;;;12.70;73.50;;;;;;5058176;28;20052;-84
2023/06/01 04:01:48;;;;;;;5.05;2.63;;;12.70;73.60;;;;;;5061777;28;20468;-84
2023/06/01 04:04:16;;;;;;;5.45;2.50;;;12.60;73.60;;;;;;5064049;28;20071;-84
2023/06/01 04:06:45;;;;;;;6.40;3.47;;;12.60;73.70;;;;;;5067884;28;20086;-84
2023/06/01 04:09:14;;;;;;;4.78;2.72;;;12.60;73.90;;;;;;5075527;28;20047;-84
2023/06/01 04:11:43;;;;;;;6.32;3.25;;;12.50;74.00;;;;;;5061190;28;20130;-78
2023/06/01 04:14:10;;;;;;;6.80;2.70;;;12.50;74.10;;;;;;5067386;28;20043;-78
2023/06/01 04:16:37;;;;;;;8.25;3.22;;;12.50;74.10;;;;;;5093734;28;20047;-78
2023/06/01 04:19:04;;;;;;;6.00;2.38;;;12.50;74.10;;;;;;5064312;28;20035;-77
2023/06/01 04:21:32;;;;;;;3.88;1.95;;;12.60;74.10;;;;;;5070866;28;20515;-77
2023/06/01 04:24:00;;;;;;;6.38;2.03;;;12.60;74.50;;;;;;5082292;28;20044;-77
2023/06/01 04:26:27;;;;;;;4.88;1.90;;;12.60;73.80;;;;;;5074018;28;20047;-78
2023/06/01 04:29:02;;;;;;;6.13;1.90;;;12.70;73.70;;;;;;5057242;28;20064;-78
2023/06/01 04:31:32;;;;;;;5.78;1.75;;;12.70;73.50;;;;;;5080194;28;20483;-78
2023/06/01 04:34:01;;;;;;;5.80;1.85;;;12.80;73.50;;;;;;5054851;28;20155;-78
2023/06/01 04:36:29;;;;;;;5.32;1.77;;;12.80;73.50;;;;;;5077938;28;20131;-78
2023/06/01 04:39:04;;;;;;;5.72;1.77;;;12.80;73.50;;;;;;5077392;28;20041;-78
2023/06/01 04:41:34;;;;;;;4.90;2.03;;;12.80;73.50;;;;;;5057105;28;20072;-77
2023/06/01 04:44:06;;;;;;;8.07;1.83;;;12.80;73.50;;;;;;5090902;28;20131;-77
2023/06/01 04:46:34;;;;;;;6.10;1.98;;;12.80;73.50;;;;;;5065142;28;20044;-78
2023/06/01 04:49:02;;;;;;;5.43;2.13;;;12.80;73.40;;;;;;5080838;28;20431;-77
2023/06/01 04:51:30;;;;;;;4.75;1.70;;;12.90;73.30;;;;;;5073230;28;20127;-77
2023/06/01 04:53:59;;;;;;;5.63;1.83;;;12.90;73.20;;;;;;5074456;28;20040;-78
2023/06/01 04:56:27;;;;;;;5.95;2.47;;;13.00;73.30;;;;;;5049023;28;20044;-78
2023/06/01 04:58:56;;;;;;;6.03;1.90;;;13.00;73.20;;;;;;5045562;28;20048;-77
2023/06/01 05:01:26;;;;;;;3.65;1.58;;;13.00;73.10;;;;;;5059398;28;20045;-78
2023/06/01 05:03:56;;;;;;;4.93;2.05;;;13.10;73.10;;;;;;5066766;28;20503;-77
2023/06/01 05:06:25;;;;;;;6.53;2.28;;;13.10;73.00;;;;;;5079588;28;20055;-77
2023/06/01 05:08:53;;;;;;;6.32;2.08;;;13.10;72.90;;;;;;5070144;28;20071;-77
2023/06/01 05:11:21;;;;;;;5.55;2.08;;;13.10;72.90;;;;;;5079074;28;20050;-77
2023/06/01 05:13:51;;;;;;;5.72;1.85;;;13.10;72.80;;;;;;5076118;28;20044;-78
2023/06/01 05:16:19;;;;;;;5.30;1.98;;;13.10;72.70;;;;;;5076421;28;20123;-78
2023/06/01 05:18:48;;;;;;;5.47;2.05;;;13.20;72.70;;;;;;5078803;28;20032;-78
2023/06/01 05:21:15;;;;;;;4.53;2.03;;;13.20;72.60;;;;;;5102295;28;20036;-78
2023/06/01 05:23:43;;;;;;;6.82;2.45;;;13.20;72.50;;;;;;5069836;28;20038;-78
2023/06/01 05:26:11;;;;;;;6.55;2.28;;;13.20;72.60;;;;;;5081291;28;20092;-78
2023/06/01 05:28:38;;;;;;;5.45;2.60;;;13.30;72.60;;;;;;5068024;28;20484;-78
2023/06/01 05:31:09;;;;;;;5.35;1.80;;;13.20;72.50;;;;;;5064546;28;20055;-78
2023/06/01 05:33:42;;;;;;;6.30;2.75;;;13.30;72.50;;;;;;5060766;28;20044;-78
2023/06/01 05:36:10;;;;;;;4.78;2.67;;;13.30;72.40;;;;;;5059136;28;20488;-78
2023/06/01 05:38:38;;;;;;;4.88;2.35;;;13.20;72.50;;;;;;5061863;28;20044;-78
2023/06/01 05:41:06;;;;;;;5.85;2.30;;;13.20;72.60;;;;;;5092134;28;20040;-78
2023/06/01 05:43:36;;;;;;;4.50;2.05;;;13.20;72.50;;;;;;5061446;28;20043;-77
2023/06/01 05:46:08;;;;;;;4.03;2.35;;;13.30;72.40;;;;;;5068985;28;20469;-78
2023/06/01 05:48:36;;;;;;;4.65;2.42;;;13.30;72.30;;;;;;5082361;28;20048;-78
2023/06/01 05:51:13;;;;;;;5.20;2.70;;;13.30;72.30;;;;;;5071424;28;20044;-84
2023/06/01 05:53:41;;;;;;;5.88;2.47;;;13.30;72.30;;;;;;5087368;28;20047;-84
2023/06/01 05:56:08;;;;;;;4.43;2.10;;;13.30;72.30;;;;;;5073871;28;20048;-84
2023/06/01 05:58:35;;;;;;;5.07;2.42;;;13.40;72.10;;;;;;5056079;28;20051;-84
2023/06/01 06:01:03;;;;;;;5.47;2.47;;;13.40;72.00;;;;;;5106125;28;20512;-83
2023/06/01 06:03:30;;;;;;;5.75;2.42;;;13.50;72.00;;;;;;5073201;28;20103;-84
2023/06/01 06:05:57;;;;;;;6.65;2.47;;;13.50;71.90;;;;;;5061820;28;20040;-84
2023/06/01 06:08:25;;;;;;;7.32;2.38;;;13.50;72.00;;;;;;5039873;28;20044;-84
2023/06/01 06:10:52;;;;;;;5.72;2.90;;;13.50;71.90;;;;;;5077509;28;20105;-84
2023/06/01 06:13:19;;;;;;;5.75;2.97;;;13.60;71.80;;;;;;5062171;28;20127;-84
2023/06/01 06:15:46;;;;;;;8.48;2.28;;;13.60;71.70;;;;;;5061842;28;20044;-84
2023/06/01 06:18:13;;;;;;;6.00;2.42;;;13.60;71.50;;;;;;5065169;28;20044;-84
2023/06/01 06:20:40;;;;;;;6.60;2.60;;;13.70;71.40;;;;;;5098572;28;20051;-83
2023/06/01 06:23:07;;;;;;;5.93;2.25;;;13.80;71.20;;;;;;5074193;28;20063;-84
2023/06/01 06:25:36;;;;;;;4.70;2.30;;;13.80;71.20;;;;;;5068890;28;20098;-84
2023/06/01 06:28:03;;;;;;;4.43;2.45;;;13.80;71.10;;;;;;5058419;28;20048;-84
2023/06/01 06:30:30;;;;;;;5.93;2.42;;;13.90;71.00;;;;;;5073723;28;20130;-84
2023/06/01 06:32:58;;;;;;;5.47;2.55;;;14.00;70.90;;;;;;5075239;28;20040;-84
2023/06/01 06:35:25;;;;;;;4.60;2.15;;;14.00;70.90;;;;;;5059211;28;20048;-84
2023/06/01 06:37:52;;;;;;;5.40;2.20;;;14.10;70.70;;;;;;5055060;28;20105;-84
2023/06/01 06:40:20;;;;;;;5.68;2.22;;;14.20;70.60;;;;;;5060848;28;20040;-84
2023/06/01 06:42:47;;;;;;;4.18;2.10;;;14.30;70.40;;;;;;5066767;28;20037;-84
2023/06/01 06:45:14;;;;;;;4.20;2.00;;;14.40;70.20;;;;;;5066099;28;20829;-84
2023/06/01 06:47:42;;;;;;;5.93;2.10;;;14.50;70.00;;;;;;5054811;28;20518;-84
2023/06/01 06:50:10;;;;;;;4.32;2.33;;;14.70;69.60;;;;;;5083063;28;20541;-84
2023/06/01 06:52:37;;;;;;;5.82;2.58;;;14.90;69.10;;;;;;5056285;28;20056;-84
2023/06/01 06:55:05;;;;;;;5.70;2.35;;;15.00;68.80;;;;;;5100274;28;20490;-84
2023/06/01 06:57:33;;;;;;;6.53;2.47;;;15.10;68.60;;;;;;5073781;28;20063;-85
2023/06/01 07:00:03;;;;;;;4.72;2.60;;;15.10;68.50;;;;;;5085730;28;20051;-85
2023/06/01 07:02:31;;;;;;;4.22;1.92;;;15.00;68.60;;;;;;5092699;28;20043;-81
2023/06/01 07:04:58;;;;;;;6.60;2.10;;;14.90;68.80;;;;;;5075742;28;20043;-81
2023/06/01 07:07:26;;;;;;;4.85;2.13;;;14.70;69.00;;;;;;5084646;28;20036;-81
2023/06/01 07:09:53;;;;;;;5.35;2.00;;;14.70;69.20;;;;;;5051441;28;20048;-81
2023/06/01 07:12:20;;;;;;;5.95;2.63;;;14.70;69.20;;;;;;5050393;28;20044;-83
2023/06/01 07:14:47;;;;;;;6.60;2.72;;;14.70;69.10;;;;;;5064571;28;20518;-81
2023/06/01 07:17:15;;;;;;;4.75;2.60;;;14.50;69.20;;;;;;5087007;28;20044;-81
2023/06/01 07:19:42;;;;;;;6.57;1.92;;;14.40;69.30;;;;;;5059268;28;20040;-81
2023/06/01 07:22:09;;;;;;;5.75;2.90;;;14.30;69.60;;;;;;5046064;28;20040;-81
2023/06/01 07:24:36;;;;;;;5.30;2.42;;;14.40;69.50;;;;;;5061525;28;20365;-82
2023/06/01 07:27:03;;;;;;;5.93;2.00;;;14.60;69.80;;;;;;5094483;28;20340;-82
2023/06/01 07:29:30;;;;;;;5.57;2.45;;;14.90;68.60;;;;;;5084617;28;20039;-78
2023/06/01 07:31:57;;;;;;;6.53;3.00;;;15.30;68.00;;;;;;5082161;28;20048;-78
2023/06/01 07:34:25;;;;;;;5.95;2.05;;;15.70;67.20;;;;;;5096643;28;20044;-79
2023/06/01 07:36:52;;;;;;;4.85;1.83;;;15.90;66.60;;;;;;5094683;28;20043;-79
2023/06/01 07:39:30;;;;;;;6.07;2.67;;;16.20;66.20;;;;;;5071212;28;20407;-78
2023/06/01 07:41:57;;;;;;;5.65;2.08;;;16.30;65.90;;;;;;5055851;28;20047;-78
2023/06/01 07:44:25;;;;;;;5.70;2.50;;;16.40;65.60;;;;;;5076121;28;20062;-79
2023/06/01 07:46:52;;;;;;;6.03;2.20;;;16.50;65.30;;;;;;5084007;28;20059;-78
2023/06/01 07:49:19;;;;;;;6.13;2.35;;;16.40;65.30;;;;;;5079452;28;20052;-78
2023/06/01 07:51:47;;;;;;;5.72;2.40;;;16.40;65.30;;;;;;5079687;28;20052;-78
2023/06/01 07:54:14;;;;;;;7.25;1.92;;;16.40;65.30;;;;;;5085944;28;20400;-78
2023/06/01 07:56:42;;;;;;;5.93;2.75;;;16.40;65.30;;;;;;5073927;28;20053;-78
2023/06/01 07:59:09;;;;;;;5.10;1.77;;;16.40;65.20;;;;;;5059281;28;20491;-78
2023/06/01 08:01:37;;;;;;;6.18;2.10;;;16.20;65.50;;;;;;5057842;28;20044;-78
2023/06/01 08:04:04;;;;;;;5.32;2.45;;;16.10;65.80;;;;;;5058100;28;20398;-77
2023/06/01 08:06:35;;;;;;;5.85;2.35;;;16.20;65.80;;;;;;5080268;28;20040;-78
2023/06/01 08:09:03;;;;;;;6.20;2.33;;;16.40;65.40;;;;;;5093181;28;20150;-78
2023/06/01 08:11:30;;;;;;;3.95;1.70;;;16.60;64.90;;;;;;5067288;28;20044;-78
2023/06/01 08:13:59;;;;;;;5.93;2.38;;;16.80;64.60;;;;;;5077838;28;20051;-78
2023/06/01 08:16:26;;;;;;;4.88;2.63;;;16.80;64.20;;;;;;5071447;28;20105;-77
2023/06/01 08:18:55;;;;;;;6.65;2.20;;;16.70;64.40;;;;;;5079141;28;20071;-78
2023/06/01 08:21:26;;;;;;;4.70;1.80;;;16.60;64.70;;;;;;5068683;28;20090;-78
2023/06/01 08:23:57;;;;;;;7.05;2.58;;;16.70;64.60;;;;;;5093505;28;20067;-79
2023/06/01 08:26:25;;;;;;;6.68;2.60;;;16.70;64.30;;;;;;5073826;28;20040;-78
2023/06/01 08:28:52;;;;;;;4.35;2.38;;;16.60;64.40;;;;;;5070245;28;20052;-80
2023/06/01 08:31:21;;;;;;;5.68;2.10;;;16.70;64.10;;;;;;5080410;28;20048;-78
2023/06/01 08:33:50;;;;;;;5.75;2.78;;;16.70;64.00;;;;;;5093137;28;20040;-79
2023/06/01 08:36:19;;;;;;;4.65;2.45;;;16.80;63.80;;;;;;5075724;28;20052;-78
2023/06/01 08:38:46;;;;;;;7.57;2.10;;;16.90;63.60;;;;;;5056321;28;20067;-78
2023/06/01 08:41:40;;;;;;;3.97;1.90;;;16.90;63.40;;;;;;5060338;28;20040;-81
2023/06/01 08:44:10;;;;;;;5.03;2.08;;;17.00;63.40;;;;;;5087167;28;20041;-81
2023/06/01 08:46:40;;;;;;;3.10;1.77;;;17.10;63.20;;;;;;5098551;28;20377;-81
2023/06/01 08:49:09;;;;;;;5.05;2.00;;;17.10;63.10;;;;;;5062124;28;20044;-89
2023/06/01 08:51:38;;;;;;;4.07;2.00;;;17.20;63.00;;;;;;5088145;28;20121;-88
2023/06/01 08:54:08;;;;;;;4.20;1.83;;;17.30;63.00;;;;;;5090717;28;20039;-81
2023/06/01 08:56:41;;;;;;;5.03;2.70;;;17.40;62.70;;;;;;5082810;28;20044;-82
2023/06/01 08:59:11;;;;;;;4.15;1.83;;;17.50;62.40;;;;;;5072917;28;20040;-86
2023/06/01 09:01:39;;;;;;;4.82;2.03;;;17.60;62.30;;;;;;5084315;28;20036;-88
2023/06/01 09:04:07;;;;;;;5.68;2.10;;;17.70;62.20;;;;;;5060480;28;20044;-88
2023/06/01 09:06:36;;;;;;;5.10;2.10;;;17.80;62.00;;;;;;5083766;28;20410;-79
2023/06/01 09:09:03;;;;;;;5.28;1.70;;;17.90;61.80;;;;;;5097202;28;20122;-79
2023/06/01 09:11:31;;;;;;;4.70;1.85;;;17.90;61.80;;;;;;5082327;28;20351;-83
2023/06/01 09:14:00;;;;;;;3.95;1.88;;;17.90;61.80;;;;;;5082934;28;20090;-82
2023/06/01 09:16:37;;;;;;;5.47;1.95;;;18.10;61.50;;;;;;5045878;28;20044;-84
2023/06/01 09:19:04;;;;;;;3.88;1.60;;;18.00;61.30;;;;;;5067328;28;20043;-81
2023/06/01 09:21:31;;;;;;;4.15;1.40;;;18.00;61.50;;;;;;5078119;28;20039;-82
2023/06/01 09:24:18;;;;;;;5.38;2.13;;;18.10;61.30;;;;;;5064461;28;20052;-83
2023/06/01 09:26:48;;;;;;;3.92;1.90;;;18.20;60.80;;;;;;5084782;28;20399;-82
2023/06/01 09:29:16;;;;;;;5.00;1.80;;;18.30;60.60;;;;;;5081604;28;20037;-83
2023/06/01 09:31:47;;;;;;;3.10;1.63;;;18.40;60.30;;;;;;5077319;28;20492;-76
2023/06/01 09:34:19;;;;;;;3.23;1.50;;;18.50;60.10;;;;;;5063351;28;20492;-77
2023/06/01 09:36:48;;;;;;;4.90;1.50;;;18.60;60.00;;;;;;5090973;28;20105;-80
2023/06/01 09:39:18;;;;;;;3.75;1.83;;;18.60;59.70;;;;;;5077705;28;20035;-76
2023/06/01 09:41:45;;;;;;;4.38;1.77;;;18.70;59.70;;;;;;5098345;28;20483;-83
2023/06/01 09:44:14;;;;;;;3.90;1.63;;;18.70;59.60;;;;;;5085981;28;20056;-76
2023/06/01 09:46:57;;;;;;;5.18;1.52;;;18.80;59.60;;;;;;5084444;28;20404;-77
2023/06/01 09:49:38;;;;;;;2.80;1.50;;;18.80;59.40;;;;;;5082711;28;20438;-83
2023/06/01 09:52:05;;;;;;;4.70;1.58;;;18.90;59.30;;;;;;5074427;28;20058;-82
2023/06/01 09:54:36;;;;;;;3.70;1.40;;;18.90;59.20;;;;;;5084643;28;20419;-83
2023/06/01 09:57:04;;;;;;;2.90;1.50;;;19.00;59.00;;;;;;5069026;28;20412;-84
2023/06/01 09:59:40;;;;;;;4.40;1.65;;;19.10;58.90;;;;;;5083334;28;20036;-86
2023/06/01 10:02:12;;;;;;;4.97;1.83;;;19.10;58.60;;;;;;5095794;28;20039;-86
2023/06/01 10:04:41;;;;;;;2.75;1.63;;;19.20;58.40;;;;;;5073091;28;20044;-86
2023/06/01 10:07:10;;;;;;;3.97;1.70;;;19.20;58.50;;;;;;5079046;28;20048;-87
2023/06/01 10:09:40;;;;;;;3.10;1.70;;;19.20;58.40;;;;;;5085116;28;20105;-85
2023/06/01 10:12:08;;;;;;;2.95;1.08;;;19.10;58.40;;;;;;5068488;28;20124;-86
2023/06/01 10:14:38;;;;;;;4.32;1.50;;;19.20;58.40;;;;;;5093814;28;20086;-86
2023/06/01 10:17:06;;;;;;;4.63;1.50;;;19.30;58.30;;;;;;5084680;28;20048;-85
2023/06/01 10:19:39;;;;;;;5.72;1.45;;;19.40;58.20;;;;;;5090617;28;20056;-86
2023/06/01 10:22:10;;;;;;;4.35;1.95;;;19.50;58.20;;;;;;5049558;28;20503;-86
2023/06/01 10:24:40;;;;;;;3.35;1.52;;;19.60;58.00;;;;;;5075678;28;20079;-87
2023/06/01 10:27:45;;;;;;;4.88;2.33;;;19.60;57.80;;;;;;5097562;28;20152;-86
2023/06/01 10:30:12;;;;;;;3.65;1.70;;;19.70;57.50;;;;;;5081733;28;20493;-86
2023/06/01 10:32:45;;;;;;;4.75;1.40;;;19.70;57.60;;;;;;5055362;28;20052;-83
2023/06/01 10:35:27;;;;;;;3.80;1.23;;;19.70;57.40;;;;;;5060393;28;20059;-82
2023/06/01 10:38:07;;;;;;;;;;;19.80;57.30;;;;;;5091769;28;20044;-82
2023/06/01 10:40:35;;;;;;;2.97;1.45;;;19.80;57.30;;;;;;5060390;28;19927;-83
2023/06/01 10:43:03;;;;;;;3.83;1.38;;;20.00;57.20;;;;;;5064051;28;20511;-83
2023/06/01 10:45:38;;;;;;;2.95;1.27;;;20.10;57.00;;;;;;5071344;28;20048;-82
2023/06/01 10:48:10;;;;;;;4.18;1.65;;;20.20;56.70;;;;;;5068734;28;20047;-82
2023/06/01 10:50:42;;;;;;;2.28;1.10;;;20.30;56.60;;;;;;5075275;28;20563;-82
2023/06/01 10:53:26;;;;;;;;;;;20.40;56.50;;;;;;5079681;28;20052;-82
2023/06/01 10:56:27;;;;;;;3.67;1.65;;;20.40;56.50;;;;;;5104908;28;19924;-82
2023/06/01 10:59:09;;;;;;;4.32;1.50;;;20.50;56.20;;;;;;5099597;28;20414;-77
2023/06/01 11:01:45;;;;;;;4.00;1.20;;;20.50;56.20;;;;;;5080627;28;20515;-77
2023/06/01 11:04:13;;;;;;;3.50;1.38;;;20.60;56.20;;;;;;5092840;28;20074;-77
2023/06/01 11:06:43;;;;;;;3.72;1.33;;;20.60;56.00;;;;;;5086317;28;20028;-78
2023/06/01 11:09:15;;;;;;;3.03;1.13;;;20.70;56.00;;;;;;5096953;28;20059;-84
2023/06/01 11:11:50;;;;;;;3.45;0.93;;;20.70;55.90;;;;;;5073257;28;20655;-83
2023/06/01 11:14:21;;;;;;;4.30;2.05;;;20.80;55.70;;;;;;5109413;28;20142;-77
2023/06/01 11:16:50;;;;;;;4.68;1.70;;;20.90;55.20;;;;;;5098857;28;20062;-77
2023/06/01 11:19:24;;;;;;;5.25;1.67;;;20.90;55.10;;;;;;5066366;28;20051;-81
2023/06/01 11:22:01;;;;;;;3.50;1.35;;;21.00;55.00;;;;;;5101084;28;20036;-82
2023/06/01 11:24:36;;;;;;;3.67;1.60;;;21.10;54.90;;;;;;5090762;28;20612;-82
2023/06/01 11:27:08;;;;;;;4.97;1.70;;;21.00;54.60;;;;;;5074911;28;20054;-82
2023/06/01 11:29:36;;;;;;;2.90;1.30;;;21.00;54.40;;;;;;5082691;28;20423;-81
2023/06/01 11:32:05;;;;;;;3.75;1.80;;;21.10;54.30;;;;;;5070323;28;20518;-83
2023/06/01 11:34:38;;;;;;;3.67;1.30;;;21.20;54.10;;;;;;5090276;28;20404;-82
2023/06/01 11:37:13;;;;;;;5.50;1.83;;;21.30;53.80;;;;;;5065832;28;20499;-83
2023/06/01 11:39:41;;;;;;;2.67;1.45;;;21.30;53.70;;;;;;5076946;28;20137;-82
2023/06/01 11:42:08;;;;;;;4.95;1.77;;;21.40;53.60;;;;;;5094623;28;20036;-82
2023/06/01 11:44:38;;;;;;;4.35;1.70;;;21.50;53.50;;;;;;5085332;28;20120;-82
2023/06/01 11:47:06;;;;;;;4.18;1.42;;;21.60;52.90;;;;;;5072201;28;20400;-82
2023/06/01 11:49:44;;;;;;;3.72;1.70;;;21.70;52.80;;;;;;5066204;28;20093;-82
2023/06/01 11:52:11;;;;;;;4.38;1.55;;;21.90;52.10;;;;;;5092793;28;20524;-76
2023/06/01 11:54:39;;;;;;;4.65;1.75;;;22.10;52.10;;;;;;5065864;28;20044;-81
2023/06/01 11:57:07;;;;;;;3.42;1.58;;;22.40;52.00;;;;;;5088610;28;20088;-77
2023/06/01 11:59:41;;;;;;;4.68;2.20;;;22.80;51.50;;;;;;5090942;28;20055;-81
2023/06/01 12:02:29;;;;;;;3.45;1.77;;;23.10;50.80;;;;;;5081616;28;20440;-81
2023/06/01 12:05:08;;;;;;;3.65;1.65;;;23.20;50.60;;;;;;5079697;28;20044;-78
2023/06/01 12:07:47;;;;;;;4.22;1.75;;;23.50;50.40;;;;;;5074056;28;20036;-78
2023/06/01 12:10:18;;;;;;;4.00;2.10;;;23.90;49.80;;;;;;5090597;28;20045;-78
2023/06/01 12:12:46;;;;;;;3.88;1.50;;;24.00;49.10;;;;;;5094562;28;20048;-78
2023/06/01 12:15:15;;;;;;;3.42;1.38;;;24.20;49.10;;;;;;5067964;28;20055;-78
2023/06/01 12:17:50;;;;;;;4.43;1.88;;;24.60;48.80;;;;;;5063421;28;20143;-78
2023/06/01 12:20:35;;;;;;;3.80;1.80;;;24.90;48.20;;;;;;5068141;28;20155;-78
2023/06/01 12:23:16;;;;;;;4.28;1.60;;;25.30;47.90;;;;;;5072253;28;20115;-79
2023/06/01 12:25:58;;;;;;;4.38;1.48;;;25.40;47.20;;;;;;5080877;28;20051;-78
2023/06/01 12:28:29;;;;;;;4.85;1.58;;;25.70;46.90;;;;;;5086891;28;20044;-79
2023/06/01 12:31:12;;;;;;;3.80;1.77;;;25.80;46.50;;;;;;5088061;28;20058;-78
2023/06/01 12:33:41;;;;;;;4.35;1.95;;;25.90;45.50;;;;;;5091218;28;20089;-78
2023/06/01 12:36:08;;;;;;;3.65;1.80;;;25.80;45.50;;;;;;5094511;28;20047;-78
2023/06/01 12:38:37;;;;;;;3.92;1.30;;;26.00;45.30;;;;;;5093371;28;20044;-78
2023/06/01 12:41:11;;;;;;;4.18;1.38;;;26.20;45.00;;;;;;5061047;28;20059;-78
2023/06/01 12:43:44;;;;;;;2.75;1.10;;;26.50;44.70;;;;;;5046126;28;20495;-78
2023/06/01 12:46:27;;;;;;;5.20;1.20;;;26.90;44.50;;;;;;5081008;28;20085;-78
2023/06/01 12:49:11;;;;;;;2.70;1.20;;;27.00;43.70;;;;;;5077091;28;20051;-78
2023/06/01 12:51:38;;;;;;;4.30;1.98;;;27.20;43.50;;;;;;5089607;28;20054;-78
2023/06/01 12:54:05;;;;;;;3.13;1.45;;;27.20;43.40;;;;;;5096030;28;20036;-77
2023/06/01 12:56:32;;;;;;;3.08;1.30;;;27.10;42.90;;;;;;5093246;28;20048;-77
2023/06/01 12:59:02;;;;;;;2.25;0.98;;;27.30;43.20;;;;;;5095942;28;20036;-78
2023/06/01 13:01:29;;;;;;;5.20;1.17;;;27.70;43.10;;;;;;5051925;28;20473;-79
2023/06/01 13:03:57;;;;;;;3.58;1.30;;;28.20;42.80;;;;;;5070937;28;20434;-78